Data for 04/15/2010

Time Sea-Level Adjusted Pressure Absolute Pressure Temperature Relative Humidity Dew Point   
(mb) (inHg) (mb) (inHg) (C) (F) (%) (C) (F)
00:05 1021 30.15 850 25.1 3.4 38 64 -2.8 26.9
00:10 1021 30.15 850 25.1 3.4 38.1 63 -3 26.7
00:15 1021 30.15 850 25.1 3.6 38.5 62 -3 26.6
00:20 1021 30.15 850 25.1 3.8 38.8 62 -2.9 26.8
00:25 1021 30.15 851 25.13 3.8 38.8 61 -3 26.6
00:30 1021 30.15 851 25.13 4 39.1 61 -2.8 26.9
00:35 1021 30.15 851 25.13 4 39.2 60 -3 26.6
00:40 1021 30.15 851 25.13 4.1 39.3 61 -2.8 26.9
00:45 1021 30.15 851 25.13 4.1 39.3 60 -2.9 26.7
00:50 1021 30.15 851 25.13 4.1 39.4 60 -2.8 26.9
00:55 1022 30.18 851 25.13 3.9 39.1 62 -2.7 27.1
01:00 1022 30.18 851 25.13 3.9 39 62 -2.8 27
01:05 1021 30.15 851 25.13 3.7 38.7 63 -2.7 27.2
01:10 1022 30.18 851 25.13 3.6 38.4 64 -2.6 27.3
01:15 1022 30.18 851 25.13 3.5 38.3 64 -2.6 27.3
01:20 1022 30.18 851 25.13 3.5 38.3 64 -2.6 27.3
01:25 1022 30.18 851 25.13 3.5 38.4 64 -2.5 27.4
01:30 1022 30.18 851 25.13 3.6 38.5 64 -2.5 27.5
01:35 1022 30.18 851 25.13 3.6 38.6 64 -2.6 27.3
01:40 1022 30.18 851 25.13 3.6 38.5 64 -2.6 27.3
01:45 1022 30.18 851 25.13 3.6 38.4 63 -2.7 27.1
01:50 1022 30.18 851 25.13 3.6 38.5 64 -2.6 27.2
01:55 1022 30.18 851 25.13 3.6 38.5 63 -2.8 27
02:00 1022 30.18 851 25.13 3.8 38.8 62 -2.9 26.8
02:05 1022 30.18 851 25.13 4 39.2 61 -2.9 26.9
02:10 1022 30.18 851 25.13 4.2 39.5 61 -2.6 27.3
02:15 1022 30.18 851 25.13 3.8 38.8 64 -2.5 27.6
02:20 1022 30.18 851 25.13 3.4 38.2 65 -2.4 27.6
02:25 1022 30.18 851 25.13 3.1 37.6 65 -2.8 27
02:30 1022 30.18 851 25.13 3.1 37.6 67 -2.5 27.6
02:35 1022 30.18 851 25.13 3 37.4 67 -2.4 27.6
02:40 1022 30.18 851 25.13 2.8 37 69 -2.4 27.7
02:45 1022 30.18 851 25.13 2.8 37.1 68 -2.4 27.7
02:50 1022 30.18 851 25.13 2.9 37.1 69 -2.4 27.7
02:55 1022 30.18 851 25.13 2.9 37.2 68 -2.5 27.6
03:00 1022 30.18 852 25.16 2.9 37.3 68 -2.4 27.7
03:05 1022 30.18 852 25.16 2.9 37.1 68 -2.5 27.5
03:10 1022 30.18 852 25.16 2.8 37 68 -2.5 27.6
03:15 1022 30.18 852 25.16 2.7 36.9 68 -2.6 27.4
03:20 1022 30.18 852 25.16 2.7 36.9 67 -2.7 27.2
03:25 1022 30.18 852 25.16 2.9 37.3 66 -2.8 27
03:30 1022 30.18 852 25.16 3.2 37.7 65 -2.7 27.1
03:35 1023 30.21 852 25.16 3 37.5 67 -2.5 27.5
03:40 1023 30.21 852 25.16 2.7 36.8 69 -2.5 27.6
03:45 1023 30.21 852 25.16 2.4 36.3 69 -2.8 26.9
03:50 1023 30.21 852 25.16 2.8 37 66 -2.9 26.7
03:55 1023 30.21 852 25.16 3.1 37.6 65 -2.9 26.8
04:00 1023 30.21 852 25.16 3.3 37.9 65 -2.7 27.2
04:05 1023 30.21 852 25.16 2.7 36.9 68 -2.6 27.4
04:10 1023 30.21 852 25.16 2.1 35.8 68 -3.2 26.3
04:15 1023 30.21 852 25.16 2.2 36 69 -3 26.6
04:20 1023 30.21 852 25.16 2.2 35.9 68 -3.1 26.4
04:25 1023 30.21 852 25.16 2.2 36 69 -2.8 26.9
04:30 1023 30.21 853 25.19 1.7 35.1 71 -2.9 26.7
04:35 1023 30.21 853 25.19 1.4 34.6 73 -2.8 27
04:40 1023 30.21 853 25.19 1.3 34.3 75 -2.8 27
04:45 1024 30.24 853 25.19 0.9 33.6 77 -2.7 27.2
04:50 1024 30.24 853 25.19 0.6 33.1 77 -3 26.6
04:55 1024 30.24 853 25.19 0.7 33.3 75 -3.1 26.3
05:00 1024 30.24 853 25.19 1 33.8 75 -3 26.7
05:05 1024 30.24 853 25.19 1.1 34 73 -3.2 26.2
05:10 1024 30.24 853 25.19 1.5 34.7 72 -2.9 26.7
05:15 1024 30.24 853 25.19 1.4 34.6 74 -2.8 27
05:20 1024 30.24 853 25.19 1.5 34.7 72 -3.1 26.4
05:25 1024 30.24 853 25.19 1.8 35.3 70 -3.1 26.5
05:30 1024 30.24 853 25.19 1.9 35.3 69 -3.2 26.2
05:35 1024 30.24 853 25.19 1.8 35.3 70 -3.1 26.4
05:40 1024 30.24 853 25.19 1.8 35.2 70 -3.1 26.4
05:45 1024 30.24 853 25.19 1.7 35 71 -3 26.6
05:50 1024 30.24 853 25.19 1.5 34.7 71 -3.2 26.2
05:55 1024 30.24 853 25.19 1.5 34.6 69 -3.5 25.6
06:00 1024 30.24 853 25.19 1.8 35.2 67 -3.7 25.4
06:05 1024 30.24 854 25.22 2 35.6 66 -3.7 25.4
06:10 1024 30.24 853 25.19 2.1 35.9 65 -3.8 25.2
06:15 1024 30.24 853 25.19 2.3 36.1 65 -3.7 25.3
06:20 1024 30.24 854 25.22 2 35.6 66 -3.7 25.3
06:25 1024 30.24 854 25.22 1.8 35.3 67 -3.7 25.3
06:30 1024 30.24 854 25.22 1.7 35.1 67 -3.7 25.4
06:35 1024 30.24 854 25.22 1.7 35 69 -3.5 25.7
06:40 1025 30.27 854 25.22 1.4 34.5 69 -3.7 25.3
06:45 1025 30.27 854 25.22 1.3 34.4 69 -3.7 25.3
06:50 1025 30.27 854 25.22 1.4 34.5 71 -3.4 25.9
06:55 1025 30.27 854 25.22 1.2 34.2 72 -3.2 26.2
07:00 1025 30.27 854 25.22 0.9 33.7 73 -3.3 26
07:05 1025 30.27 854 25.22 0.9 33.6 73 -3.3 26
07:10 1025 30.27 854 25.22 0.8 33.4 74 -3.4 25.9
07:15 1025 30.27 854 25.22 1 33.8 72 -3.6 25.6
07:20 1025 30.27 854 25.22 1.4 34.5 69 -3.7 25.4
07:25 1025 30.27 854 25.22 1.9 35.5 64 -4.2 24.5
07:30 1025 30.27 854 25.22 2.4 36.3 61 -4.3 24.2
07:35 1025 30.27 854 25.22 2.8 37.1 59 -4.5 23.9
07:40 1025 30.27 854 25.22 2.8 37.1 65 -3.2 26.3
07:45 1025 30.27 854 25.22 2.4 36.3 66 -3.3 26.1
07:50 1025 30.27 854 25.22 2.5 36.5 66 -3.2 26.2
07:55 1025 30.27 854 25.22 2.7 36.9 64 -3.4 26
08:00 1025 30.27 854 25.22 2.9 37.2 62 -3.6 25.6
08:05 1025 30.27 855 25.25 3.5 38.3 60 -3.5 25.7
08:10 1025 30.27 855 25.25 3.8 38.9 58 -3.6 25.5
08:15 1025 30.27 855 25.25 4.2 39.5 58 -3.4 25.9
08:20 1025 30.27 855 25.25 4.5 40.1 56 -3.5 25.7
08:25 1026 30.3 855 25.25 4.9 40.8 54 -3.5 25.7
08:30 1026 30.3 855 25.25 5.2 41.3 55 -3 26.6
08:35 1026 30.3 855 25.25 5.1 41.1 56 -2.9 26.8
08:40 1026 30.3 855 25.25 5 41 54 -3.5 25.8
08:45 1026 30.3 855 25.25 5.7 42.2 51 -3.6 25.5
08:50 1026 30.3 855 25.25 6.5 43.7 49 -3.5 25.8
08:55 1026 30.3 855 25.25 6.9 44.5 49 -3 26.5
09:00 1026 30.3 855 25.25 6.9 44.4 49 -3.2 26.3
09:05 1026 30.3 855 25.25 6.7 44.1 49 -3.2 26.2
09:10 1026 30.3 855 25.25 6.3 43.4 54 -2.4 27.7
09:15 1026 30.3 855 25.25 5.1 41.1 56 -3.1 26.4
09:20 1026 30.3 855 25.25 5 41 58 -2.6 27.3
09:25 1026 30.3 855 25.25 5.1 41.1 55 -3.1 26.4
09:30 1026 30.3 855 25.25 5.5 41.9 54 -3 26.6
09:35 1026 30.3 855 25.25 5.9 42.7 54 -2.7 27.1
09:40 1026 30.3 855 25.25 6.2 43.1 53 -2.8 27
09:45 1026 30.3 855 25.25 6.6 43.9 52 -2.5 27.5
09:50 1026 30.3 855 25.25 7.1 44.8 50 -2.6 27.3
09:55 1026 30.3 855 25.25 7.2 44.9 51 -2.3 27.9
10:00 1026 30.3 855 25.25 6.9 44.4 51 -2.5 27.4
10:05 1026 30.3 855 25.25 7.1 44.7 49 -2.8 27
10:10 1026 30.3 855 25.25 7.9 46.2 49 -2.3 27.9
10:15 1026 30.3 855 25.25 7.7 45.8 48 -2.5 27.5
10:20 1026 30.3 855 25.25 7.7 45.9 48 -2.6 27.3
10:25 1026 30.3 856 25.28 8.9 48 43 -2.8 26.9
10:30 1026 30.3 856 25.28 8.8 47.9 44 -2.6 27.3
10:35 1026 30.3 856 25.28 7.7 45.9 47 -3 26.6
10:40 1026 30.3 856 25.28 8.1 46.6 46 -2.9 26.7
10:45 1026 30.3 856 25.28 8.4 47.1 44 -3.3 26.1
10:50 1026 30.3 856 25.28 8.9 48 42 -3.2 26.3
10:55 1027 30.33 856 25.28 8.9 48.1 42 -3.2 26.3
11:00 1027 30.33 856 25.28 9.2 48.5 44 -2.3 27.9
11:05 1027 30.33 856 25.28 9 48.3 46 -2.1 28.3
11:10 1027 30.33 856 25.28 8.7 47.6 48 -1.8 28.7
11:15 1027 30.33 856 25.28 9.4 48.9 44 -2.3 27.8
11:20 1027 30.33 856 25.28 9.5 49.2 42 -2.7 27.2
11:25 1027 30.33 856 25.28 10.3 50.5 37 -3.6 25.5
11:30 1027 30.33 856 25.28 10 50 40 -3.1 26.5
11:35 1026 30.3 856 25.28 10 49.9 43 -2 28.5
11:40 1026 30.3 856 25.28 9.6 49.3 44 -2 28.3
11:45 1026 30.3 856 25.28 9.4 48.9 46 -1.7 29
11:50 1026 30.3 856 25.28 8.8 47.9 42 -3.2 26.2
11:55 1026 30.3 856 25.28 9.1 48.4 44 -2.4 27.6
12:00 1026 30.3 856 25.28 9.8 49.7 40 -3 26.6
12:05 1027 30.33 856 25.28 10.3 50.5 39 -3.2 26.2
12:10 1026 30.3 856 25.28 10.6 51.1 37 -3.5 25.7
12:15 1026 30.3 856 25.28 10.9 51.7 37 -3.3 26.1
12:20 1026 30.3 856 25.28 11.3 52.4 37 -2.9 26.8
12:25 1026 30.3 855 25.25 11.8 53.2 34 -3.7 25.4
12:30 1026 30.3 855 25.25 11.8 53.2 32 -4.4 24.1
12:35 1026 30.3 855 25.25 11.4 52.6 35 -3.5 25.7
12:40 1026 30.3 855 25.25 10.7 51.3 33 -4.8 23.4
12:45 1026 30.3 855 25.25 11.1 51.9 32 -4.8 23.4
12:50 1026 30.3 855 25.25 11.5 52.6 33 -4 24.8
12:55 1026 30.3 855 25.25 10.5 50.9 36 -3.9 25
13:00 1026 30.3 855 25.25 10.4 50.7 34 -4.8 23.3
13:05 1026 30.3 855 25.25 12 53.5 31 -4.5 24
13:10 1026 30.3 855 25.25 12.9 55.3 30 -4.2 24.4
13:15 1026 30.3 855 25.25 12.8 55 30 -4.3 24.3
13:20 1026 30.3 855 25.25 12 53.7 31 -4.6 23.8
13:25 1026 30.3 855 25.25 11.6 52.9 31 -5.1 22.8
13:30 1026 30.3 855 25.25 12.3 54.1 29 -5.1 22.7
13:35 1026 30.3 855 25.25 13 55.4 29 -4.6 23.8
13:40 1026 30.3 855 25.25 13.3 55.9 27 -5.3 22.4
13:45 1026 30.3 855 25.25 12.1 53.7 28 -5.7 21.8
13:50 1026 30.3 855 25.25 11.6 52.8 29 -5.7 21.7
13:55 1026 30.3 855 25.25 12.3 54.1 28 -5.9 21.4
14:00 1026 30.3 855 25.25 12.4 54.2 28 -5.7 21.7
14:05 1026 30.3 855 25.25 12.7 54.9 28 -5.2 22.6
14:10 1026 30.3 855 25.25 12.7 54.9 26 -6.1 21
14:15 1025 30.27 855 25.25 13.4 56.1 27 -5.4 22.3
14:20 1025 30.27 855 25.25 12.7 54.9 27 -5.9 21.3
14:25 1025 30.27 855 25.25 13.1 55.6 26 -5.7 21.7
14:30 1025 30.27 855 25.25 12.8 55.1 26 -6.1 21
14:35 1025 30.27 855 25.25 12.7 54.9 25 -6.6 20.2
14:40 1025 30.27 855 25.25 12.8 55.1 25 -6.7 20
14:45 1025 30.27 855 25.25 13.6 56.6 24 -6.3 20.6
14:50 1025 30.27 855 25.25 14.5 58 23 -6.4 20.4
14:55 1025 30.27 855 25.25 14.2 57.5 25 -5.7 21.8
15:00 1025 30.27 855 25.25 14.1 57.4 25 -5.7 21.7
15:05 1025 30.27 855 25.25 14.9 58.7 24 -5.6 21.9
15:10 1025 30.27 855 25.25 15.3 59.5 23 -5.7 21.8
15:15 1025 30.27 855 25.25 15.8 60.5 23 -5.5 22.2
15:20 1025 30.27 854 25.22 16.1 61 23 -5.2 22.7
15:25 1025 30.27 854 25.22 14.8 58.6 24 -5.6 21.8
15:30 1025 30.27 854 25.22 14.3 57.8 24 -5.8 21.5
15:35 1025 30.27 854 25.22 15.2 59.3 24 -5.4 22.3
15:40 1025 30.27 854 25.22 15 58.9 23 -6 21.3
15:45 1025 30.27 854 25.22 15.8 60.4 21 -6.6 20.1
15:50 1025 30.27 854 25.22 15.3 59.6 23 -5.4 22.3
15:55 1025 30.27 854 25.22 15.3 59.5 24 -5.3 22.5
16:00 1025 30.27 854 25.22 14.5 58 22 -6.9 19.6
16:05 1025 30.27 854 25.22 14.3 57.7 22 -6.9 19.5
16:10 1025 30.27 854 25.22 15.3 59.6 22 -6.1 21
16:15 1025 30.27 854 25.22 15.8 60.4 22 -5.6 21.8
16:20 1025 30.27 854 25.22 15.2 59.3 24 -5.5 22.2
16:25 1025 30.27 854 25.22 15.2 59.3 23 -5.9 21.4
16:30 1025 30.27 854 25.22 14.7 58.4 23 -6.1 21
16:35 1025 30.27 854 25.22 14.4 57.9 24 -5.8 21.5
16:40 1025 30.27 854 25.22 14.6 58.3 24 -5.6 22
16:45 1025 30.27 854 25.22 14.9 58.9 24 -5.3 22.4
16:50 1025 30.27 854 25.22 14.3 57.7 25 -5.5 22.1
16:55 1025 30.27 854 25.22 15 58.9 25 -4.9 23.3
17:00 1025 30.27 854 25.22 15.3 59.6 24 -5.1 22.8
17:05 1025 30.27 854 25.22 15.1 59.1 24 -5.2 22.6
17:10 1025 30.27 854 25.22 15.1 59.2 24 -5.3 22.5
17:15 1025 30.27 854 25.22 15.1 59.1 21 -6.8 19.7
17:20 1025 30.27 854 25.22 14.4 57.9 23 -6.5 20.3
17:25 1025 30.27 854 25.22 13.8 56.8 24 -6.6 20.1
17:30 1025 30.27 854 25.22 13.9 56.9 24 -6.3 20.6
17:35 1025 30.27 854 25.22 13.6 56.5 25 -6 21.3
17:40 1025 30.27 854 25.22 13.3 56 25 -6.1 21
17:45 1025 30.27 854 25.22 13.4 56 25 -6 21.1
17:50 1025 30.27 854 25.22 13.1 55.6 25 -6.4 20.4
17:55 1025 30.27 854 25.22 13 55.3 25 -6.4 20.5
18:00 1025 30.27 854 25.22 13 55.4 26 -6.2 20.8
18:05 1025 30.27 854 25.22 13 55.4 25 -6.4 20.5
18:10 1025 30.27 854 25.22 13 55.3 25 -6.4 20.4
18:15 1025 30.27 854 25.22 12.9 55.2 26 -6.2 20.9
18:20 1025 30.27 854 25.22 12.9 55.2 27 -5.5 22.1
18:25 1025 30.27 854 25.22 12.8 55 27 -5.7 21.7
18:30 1025 30.27 854 25.22 12.4 54.4 28 -5.6 21.9
18:35 1025 30.27 854 25.22 12.3 54.1 29 -5.4 22.2
18:40 1025 30.27 854 25.22 12.1 53.8 29 -5.5 22.1
18:45 1025 30.27 854 25.22 11.9 53.5 29 -5.7 21.7
18:50 1025 30.27 854 25.22 11.8 53.2 29 -5.8 21.6
18:55 1025 30.27 854 25.22 11.7 53 29 -5.8 21.6
19:00 1025 30.27 854 25.22 11.6 52.8 30 -5.5 22
19:05 1025 30.27 854 25.22 11.4 52.6 30 -5.4 22.3
19:10 1025 30.27 854 25.22 11.4 52.4 30 -5.4 22.3
19:15 1025 30.27 854 25.22 11.3 52.3 30 -5.4 22.2
19:20 1025 30.27 854 25.22 11.1 52 31 -5.4 22.3
19:25 1025 30.27 854 25.22 10.9 51.7 32 -5.2 22.6
19:30 1025 30.27 854 25.22 10.8 51.5 32 -5.3 22.4
19:35 1025 30.27 854 25.22 10.7 51.3 32 -5.2 22.6
19:40 1025 30.27 854 25.22 10.6 51 33 -5.2 22.6
19:45 1025 30.27 854 25.22 10.5 50.8 33 -5.2 22.7
19:50 1025 30.27 854 25.22 10.3 50.5 33 -5.1 22.9
19:55 1025 30.27 854 25.22 10.2 50.3 34 -5.1 22.8
20:00 1025 30.27 855 25.25 10 50 34 -5.1 22.8
20:05 1025 30.27 855 25.25 9.9 49.8 35 -4.8 23.4
20:10 1025 30.27 855 25.25 9.8 49.6 36 -4.7 23.5
20:15 1025 30.27 855 25.25 9.6 49.3 36 -4.7 23.6
20:20 1025 30.27 855 25.25 9.5 49.1 37 -4.5 23.9
20:25 1025 30.27 855 25.25 9.4 48.8 37 -4.6 23.7
20:30 1025 30.27 855 25.25 9.3 48.8 37 -4.6 23.7
20:35 1026 30.3 855 25.25 9.3 48.7 38 -4.5 23.9
20:40 1026 30.3 855 25.25 9.2 48.5 38 -4.5 24
20:45 1026 30.3 855 25.25 9.1 48.4 38 -4.5 23.8
20:50 1026 30.3 855 25.25 9.1 48.4 37 -4.7 23.6
20:55 1026 30.3 855 25.25 9.2 48.5 37 -4.8 23.3
21:00 1026 30.3 855 25.25 9.1 48.5 38 -4.5 23.9
21:05 1026 30.3 855 25.25 9 48.3 38 -4.5 23.8
21:10 1026 30.3 855 25.25 8.9 48 38 -4.6 23.8
21:15 1026 30.3 855 25.25 8.8 47.9 39 -4.5 23.9
21:20 1026 30.3 855 25.25 8.8 47.8 40 -4.2 24.5
21:25 1026 30.3 855 25.25 8.6 47.4 41 -4 24.8
21:30 1026 30.3 855 25.25 8.5 47.3 41 -3.9 25
21:35 1026 30.3 855 25.25 8.5 47.2 42 -3.7 25.3
21:40 1026 30.3 855 25.25 8.4 47.2 42 -3.7 25.3
21:45 1026 30.3 855 25.25 8.4 47.1 43 -3.5 25.8
21:50 1026 30.3 855 25.25 8.4 47 44 -3.3 26.1
21:55 1026 30.3 855 25.25 8.3 46.9 45 -3 26.5
22:00 1026 30.3 855 25.25 8.2 46.7 45 -3 26.7
22:05 1026 30.3 855 25.25 8 46.4 46 -2.8 26.9
22:10 1026 30.3 855 25.25 7.9 46.1 47 -2.7 27.2
22:15 1026 30.3 855 25.25 7.7 45.9 48 -2.6 27.3
22:20 1026 30.3 855 25.25 7.7 45.9 49 -2.4 27.7
22:25 1026 30.3 855 25.25 7.6 45.7 49 -2.4 27.6
22:30 1026 30.3 855 25.25 7.6 45.6 50 -2.3 27.9
22:35 1026 30.3 855 25.25 7.5 45.4 50 -2.3 27.9
22:40 1026 30.3 855 25.25 7.4 45.3 50 -2.2 28
22:45 1026 30.3 855 25.25 7.3 45.1 51 -2.2 28
22:50 1026 30.3 855 25.25 7.2 44.9 51 -2.3 27.9
22:55 1026 30.3 855 25.25 7.1 44.8 51 -2.2 28
23:00 1026 30.3 855 25.25 7 44.7 51 -2.3 27.9
23:05 1026 30.3 855 25.25 7 44.5 52 -2.3 27.8
23:10 1026 30.3 855 25.25 6.9 44.4 51 -2.5 27.6
23:15 1026 30.3 855 25.25 6.8 44.3 51 -2.5 27.5
23:20 1026 30.3 855 25.25 6.7 44.1 51 -2.7 27.1
23:25 1026 30.3 855 25.25 6.7 44 51 -2.6 27.3
23:30 1026 30.3 855 25.25 6.5 43.7 51 -2.8 27
23:35 1026 30.3 855 25.25 6.4 43.5 51 -2.9 26.8
23:40 1026 30.3 855 25.25 6.3 43.4 52 -2.8 26.9
23:45 1026 30.3 855 25.25 6.2 43.2 52 -2.9 26.7
23:50 1026 30.3 855 25.25 6.1 42.9 53 -2.9 26.8
23:55 1026 30.3 855 25.25 5.9 42.7 53 -3 26.6
24:00 1026 30.3 855 25.25 5.8 42.5 53 -3.1 26.4